Time;durP1;ratioP1;P1;durP2;ratioP2;P2;SDS_P1;SDS_P2;PMS_P1;PMS_P2;Temp;Humidity;BMP_temperature;BMP_pressure;BME280_temperature;BME280_humidity;BME280_pressure;Samples;Min_cycle;Max_cycle;Signal;HPM_P1;HPM_P2
2021/12/13 00:01:29;;;;;;;29.13;24.17;;;;;;;8.86;94.12;102439.34;5033562;28;20052;-75
2021/12/13 00:04:07;;;;;;;33.17;26.40;;;;;;;8.85;94.17;102448.06;5032857;28;20039;-74
2021/12/13 00:06:40;;;;;;;32.42;25.10;;;;;;;8.84;93.95;102438.44;5031817;28;20029;-75
2021/12/13 00:09:11;;;;;;;36.38;25.88;;;;;;;8.83;93.91;102440.19;5033857;28;20090;-74
2021/12/13 00:11:44;;;;;;;32.22;23.90;;;;;;;8.83;94.43;102441.91;5030151;28;20045;-75
2021/12/13 00:14:27;;;;;;;29.02;24.25;;;;;;;8.82;94.19;102441.03;5033492;28;20052;-74
2021/12/13 00:17:26;;;;;;;31.27;24.65;;;;;;;8.83;94.27;102444.50;5033994;28;20127;-75
2021/12/13 00:19:58;;;;;;;33.10;25.30;;;;;;;8.80;94.19;102440.09;5026781;28;20507;-75
2021/12/13 00:22:41;;;;;;;36.25;24.05;;;;;;;8.80;93.82;102440.09;5033542;28;20036;-74
2021/12/13 00:25:10;;;;;;;33.92;25.35;;;;;;;8.77;93.96;102439.16;5031769;28;20466;-75
2021/12/13 00:27:52;;;;;;;30.98;23.88;;;;;;;8.77;93.92;102439.16;5032068;28;20074;-75
2021/12/13 00:30:21;;;;;;;29.35;22.48;;;;;;;8.75;93.72;102440.84;5029950;28;20477;-74
2021/12/13 00:33:25;;;;;;;33.97;23.85;;;;;;;8.75;93.69;102444.38;5026961;28;20471;-75
2021/12/13 00:35:56;;;;;;;29.17;22.75;;;;;;;8.72;93.86;102446.91;5032214;28;20041;-75
2021/12/13 00:38:25;;;;;;;30.20;21.27;;;;;;;8.71;93.81;102457.34;5049251;28;20047;-75
2021/12/13 00:41:00;;;;;;;34.00;23.77;;;;;;;8.72;93.79;102456.47;5034808;28;20029;-74
2021/12/13 00:43:32;;;;;;;30.10;24.35;;;;;;;8.69;93.97;102452.06;5027912;28;20056;-75
2021/12/13 00:46:05;;;;;;;28.13;22.98;;;;;;;8.69;93.72;102453.78;5026058;28;20033;-75
2021/12/13 00:48:33;;;;;;;25.92;21.63;;;;;;;8.67;93.62;102459.84;5031984;28;20029;-74
2021/12/13 00:51:22;;;;;;;28.08;20.42;;;;;;;8.67;93.74;102465.09;5031951;28;20032;-74
2021/12/13 00:53:50;;;;;;;27.40;20.52;;;;;;;8.63;93.62;102458.06;5032512;28;20113;-75
2021/12/13 00:56:46;;;;;;;31.95;20.75;;;;;;;8.63;93.60;102458.06;5016411;28;20036;-74
2021/12/13 00:59:20;;;;;;;24.92;20.23;;;;;;;8.59;93.56;102458.84;5047289;28;20060;-74
2021/12/13 01:02:10;;;;;;;30.60;21.48;;;;;;;8.58;93.65;102462.28;5028685;28;20044;-75
2021/12/13 01:05:07;;;;;;;29.58;20.30;;;;;;;8.58;93.20;102459.66;5026640;28;20132;-74
2021/12/13 01:07:32;;;;;;;25.52;19.75;;;;;;;8.56;93.16;102464.00;5025182;28;20071;-75
2021/12/13 01:10:30;;;;;;;25.92;19.17;;;;;;;8.58;93.58;102458.81;5047222;28;20068;-75
2021/12/13 01:12:58;;;;;;;27.88;19.05;;;;;;;8.55;93.47;102461.31;5050035;28;20025;-75
2021/12/13 01:15:38;;;;;;;28.63;21.15;;;;;;;8.54;93.25;102459.56;5022683;28;20033;-75
2021/12/13 01:18:56;;;;;;;25.10;18.63;;;;;;;8.53;93.16;102469.13;5032666;28;20542;-75
2021/12/13 01:21:40;;;;;;;26.23;20.10;;;;;;;8.52;93.49;102475.22;5031010;28;20078;-74
2021/12/13 01:24:12;;;;;;;27.45;18.83;;;;;;;8.51;93.23;102472.56;5028957;28;20036;-74
2021/12/13 01:26:55;;;;;;;24.77;19.15;;;;;;;8.49;93.34;102473.41;5033329;28;20464;-75
2021/12/13 01:29:28;;;;;;;27.17;20.05;;;;;;;8.49;93.51;102477.72;5026369;28;20035;-84
2021/12/13 01:32:02;;;;;;;32.95;21.60;;;;;;;8.48;93.35;102487.31;5035592;28;20306;-82
2021/12/13 01:34:31;;;;;;;26.30;20.17;;;;;;;8.47;93.60;102482.06;5035412;28;20083;-83
2021/12/13 01:37:09;;;;;;;25.92;19.85;;;;;;;8.45;93.87;102486.38;5024170;28;20028;-82
2021/12/13 01:39:39;;;;;;;33.97;20.70;;;;;;;8.46;93.51;102486.41;5070507;28;20041;-84
2021/12/13 01:42:13;;;;;;;28.30;21.63;;;;;;;8.42;93.49;102489.75;5044219;28;20053;-83
2021/12/13 01:45:00;;;;;;;34.53;22.15;;;;;;;8.44;93.47;102487.19;5014373;28;20084;-83
2021/12/13 01:47:34;;;;;;;30.35;22.50;;;;;;;8.42;93.32;102494.06;5033539;28;20032;-81
2021/12/13 01:50:06;;;;;;;31.30;21.20;;;;;;;8.41;93.36;102493.22;5029571;28;20446;-81
2021/12/13 01:52:36;;;;;;;30.10;21.48;;;;;;;8.38;93.55;102498.38;5051134;28;20055;-82
2021/12/13 01:55:11;;;;;;;27.53;20.43;;;;;;;8.39;93.34;102509.69;5031858;28;20028;-83
2021/12/13 01:57:41;;;;;;;29.85;20.98;;;;;;;8.38;93.02;102489.66;5033203;28;20086;-82
2021/12/13 02:00:21;;;;;;;31.33;21.90;;;;;;;8.36;93.47;102489.63;5011022;28;20041;-83
2021/12/13 02:02:54;;;;;;;25.77;21.20;;;;;;;8.37;93.27;102500.94;5032873;28;20120;-85
2021/12/13 02:05:27;;;;;;;31.42;20.92;;;;;;;8.36;93.52;102493.94;4998881;28;20041;-74
2021/12/13 02:08:10;;;;;;;33.45;22.85;;;;;;;8.35;93.40;102497.41;5042608;28;20455;-74
2021/12/13 02:10:38;;;;;;;34.53;23.80;;;;;;;8.31;93.26;102496.44;5030992;28;20095;-74
2021/12/13 02:13:14;;;;;;;34.00;23.65;;;;;;;8.33;93.49;102502.59;5032741;28;20027;-74
2021/12/13 02:18:34;;;;;;;35.03;24.98;;;;;;;8.26;93.80;102501.56;5051203;28;20048;-74
2021/12/13 02:21:21;;;;;;;31.83;23.42;;;;;;;8.26;93.64;102498.97;5032982;28;20044;-75
2021/12/13 02:23:49;;;;;;;33.10;24.58;;;;;;;8.24;93.58;102503.25;5034985;28;20033;-74
2021/12/13 02:26:15;;;;;;;30.83;22.52;;;;;;;8.22;93.12;102501.47;5032922;28;20068;-74
2021/12/13 02:28:45;;;;;;;32.47;25.50;;;;;;;8.22;93.09;102499.72;5014197;28;20037;-74
2021/12/13 02:31:17;;;;;;;35.30;24.02;;;;;;;8.20;93.59;102496.19;5032872;28;20043;-74
2021/12/13 02:33:48;;;;;;;32.35;23.90;;;;;;;8.21;93.26;102500.56;5024946;28;20033;-74
2021/12/13 02:36:21;;;;;;;37.40;24.15;;;;;;;8.20;93.19;102504.00;5032547;28;20028;-75
2021/12/13 02:38:51;;;;;;;33.83;23.13;;;;;;;8.19;93.69;102490.91;5028771;28;20164;-74
2021/12/13 02:41:25;;;;;;;29.60;22.17;;;;;;;8.20;93.38;102497.91;5040892;28;20497;-75
2021/12/13 02:43:55;;;;;;;35.15;25.02;;;;;;;8.18;93.60;102500.50;5026215;28;20124;-74
2021/12/13 02:46:21;;;;;;;35.53;25.25;;;;;;;8.19;93.39;102496.13;5023749;28;20068;-74
2021/12/13 02:48:57;;;;;;;29.98;22.77;;;;;;;8.20;93.57;102493.56;5012333;28;20029;-74
2021/12/13 02:51:34;;;;;;;43.55;24.73;;;;;;;8.19;93.37;102494.44;5031827;28;20064;-75
2021/12/13 02:54:19;;;;;;;40.63;25.48;;;;;;;8.18;93.28;102491.78;5045705;28;20021;-75
2021/12/13 02:56:58;;;;;;;33.22;25.23;;;;;;;8.19;92.98;102493.53;5028511;28;20104;-74
2021/12/13 02:59:30;;;;;;;34.00;24.08;;;;;;;8.15;93.02;102488.22;5031242;28;20021;-74
2021/12/13 03:02:07;;;;;;;32.65;24.42;;;;;;;8.14;93.23;102503.88;5024331;28;20041;-74
2021/12/13 03:04:34;;;;;;;39.15;26.58;;;;;;;8.13;93.05;102497.78;5045002;28;20033;-74
2021/12/13 03:07:16;;;;;;;34.72;25.25;;;;;;;8.12;92.93;102482.06;5032258;28;20027;-73
2021/12/13 03:09:46;;;;;;;30.50;22.65;;;;;;;8.09;93.04;102500.28;5031920;28;20040;-74
2021/12/13 03:12:15;;;;;;;34.72;23.75;;;;;;;8.08;92.79;102501.97;5035572;28;20025;-74
2021/12/13 03:14:47;;;;;;;32.80;23.85;;;;;;;8.06;93.23;102495.84;5031807;28;20108;-73
2021/12/13 03:17:22;;;;;;;35.47;25.23;;;;;;;8.06;93.59;102497.56;5050073;28;20032;-74
2021/12/13 03:20:20;;;;;;;37.63;25.33;;;;;;;8.05;93.12;102495.81;5034827;28;20721;-73
2021/12/13 03:23:13;;;;;;;35.95;25.50;;;;;;;8.01;93.46;102496.56;5034383;28;20040;-73
2021/12/13 03:26:20;;;;;;;35.97;25.08;;;;;;;8.05;93.21;102501.03;5034241;28;20041;-74
2021/12/13 03:29:03;;;;;;;36.85;26.92;;;;;;;8.00;93.18;102500.91;4973507;28;20100;-73
2021/12/13 03:31:35;;;;;;;38.90;26.38;;;;;;;7.99;93.30;102509.59;5025479;28;20054;-74
2021/12/13 03:34:07;;;;;;;38.05;23.92;;;;;;;7.97;93.39;102506.03;5032205;28;20031;-74
2021/12/13 03:37:20;;;;;;;39.20;27.30;;;;;;;7.98;93.34;102503.47;5034700;28;20068;-74
2021/12/13 03:39:52;;;;;;;39.97;27.00;;;;;;;7.95;93.55;102500.78;5024015;28;20366;-74
2021/12/13 03:42:33;;;;;;;36.08;25.80;;;;;;;7.94;93.61;102511.19;5024737;28;20033;-73
2021/12/13 03:45:05;;;;;;;36.78;26.85;;;;;;;7.92;93.79;102511.16;5032228;28;20705;-73
2021/12/13 03:47:38;;;;;;;32.80;24.65;;;;;;;7.93;93.58;102505.09;5031690;28;20029;-75
2021/12/13 03:50:24;;;;;;;40.08;26.20;;;;;;;7.91;93.63;102506.75;5033275;28;20536;-74
2021/12/13 03:52:54;;;;;;;43.88;27.40;;;;;;;7.88;93.52;102506.69;5037257;28;20063;-74
2021/12/13 03:55:22;;;;;;;41.55;26.50;;;;;;;7.88;93.34;102511.91;5034189;28;20040;-74
2021/12/13 03:57:56;;;;;;;42.83;26.75;;;;;;;7.87;93.52;102511.88;5034034;28;20428;-75
2021/12/13 04:00:30;;;;;;;39.85;25.83;;;;;;;7.87;93.22;102504.91;5018705;28;20025;-74
2021/12/13 04:02:59;;;;;;;34.70;25.35;;;;;;;7.88;93.15;102508.44;5043799;28;20465;-74
2021/12/13 04:05:28;;;;;;;42.40;27.08;;;;;;;7.85;93.23;102504.00;5037129;28;20028;-76
2021/12/13 04:07:57;;;;;;;41.65;28.75;;;;;;;7.89;93.73;102512.81;5035841;28;20496;-90
2021/12/13 04:10:28;;;;;;;37.78;27.85;;;;;;;7.89;93.18;102502.38;5033674;28;20034;-89
2021/12/13 04:12:56;;;;;;;;;;;;;;;7.91;92.96;102505.91;5034398;28;20056;-90
2021/12/13 04:15:48;;;;;;;37.55;24.42;;;;;;;7.88;92.83;102511.91;5037328;28;20299;-93
2021/12/13 04:18:39;;;;;;;32.63;23.63;;;;;;;7.87;93.06;102504.03;5037090;28;20016;-90
2021/12/13 04:21:06;;;;;;;35.30;25.67;;;;;;;7.86;93.18;102510.09;5017727;28;20087;-92
2021/12/13 04:26:59;;;;;;;39.92;25.83;;;;;;;7.85;92.87;102514.44;5035557;28;20527;-90
2021/12/13 04:29:44;;;;;;;34.25;23.70;;;;;;;7.87;93.17;102514.47;5036583;28;20039;-90
2021/12/13 04:32:21;;;;;;;34.13;24.58;;;;;;;7.86;92.66;102518.84;5036451;28;20028;-90
2021/12/13 04:34:51;;;;;;;36.25;24.00;;;;;;;7.85;93.20;102511.84;5037069;28;20029;-90
2021/12/13 04:37:21;;;;;;;35.17;24.80;;;;;;;7.85;92.91;102517.06;5036810;28;20021;-89
2021/12/13 04:39:52;;;;;;;38.20;23.50;;;;;;;7.87;93.08;102520.56;5031952;28;20048;-89
2021/12/13 04:42:20;;;;;;;39.42;24.15;;;;;;;7.86;92.55;102513.63;5054031;28;20032;-89
2021/12/13 04:44:56;;;;;;;35.10;23.42;;;;;;;7.87;92.66;102512.75;5041585;28;20029;-86
2021/12/13 04:47:32;;;;;;;36.55;24.48;;;;;;;7.89;92.56;102513.69;5034248;28;20103;-87
2021/12/13 04:50:36;;;;;;;36.58;23.65;;;;;;;7.88;92.79;102517.13;5049883;28;20055;-86
2021/12/13 04:53:03;;;;;;;35.45;23.52;;;;;;;7.88;92.65;102517.13;5034514;28;20485;-86
2021/12/13 04:55:38;;;;;;;39.53;24.35;;;;;;;7.86;92.59;102518.84;5031010;28;20029;-85
2021/12/13 04:58:09;;;;;;;32.00;21.10;;;;;;;7.86;92.63;102513.63;5034166;28;20021;-86
2021/12/13 05:00:56;;;;;;;37.58;24.60;;;;;;;7.88;92.73;102511.91;5022805;28;20041;-84
2021/12/13 05:03:28;;;;;;;33.20;22.77;;;;;;;7.85;91.96;102505.75;5050386;28;20031;-83
2021/12/13 05:05:54;;;;;;;33.05;22.15;;;;;;;7.84;92.10;102512.66;5033894;28;20107;-82
2021/12/13 05:08:20;;;;;;;27.92;21.75;;;;;;;7.84;92.49;102504.84;5033888;28;20033;-85
2021/12/13 05:10:49;;;;;;;34.38;22.60;;;;;;;7.84;92.20;102517.03;5051961;28;20029;-84
2021/12/13 05:13:26;;;;;;;31.75;23.10;;;;;;;7.85;92.11;102517.06;5048728;28;20029;-84
2021/12/13 05:16:08;;;;;;;32.08;22.35;;;;;;;7.84;92.43;102517.03;5043014;28;20032;-83
2021/12/13 05:18:43;;;;;;;32.33;21.75;;;;;;;7.83;92.22;102523.06;5034415;28;20043;-83
2021/12/13 05:21:14;;;;;;;32.35;21.23;;;;;;;7.81;92.31;102517.81;5052187;28;20425;-85
2021/12/13 05:24:02;;;;;;;30.30;21.23;;;;;;;7.83;91.91;102520.47;5039643;28;20465;-84
2021/12/13 05:26:44;;;;;;;30.80;21.67;;;;;;;7.82;92.20;102523.94;5032010;28;20060;-73
2021/12/13 05:29:37;;;;;;;33.45;20.80;;;;;;;7.81;91.96;102517.81;5031774;28;20465;-73
2021/12/13 05:32:07;;;;;;;29.00;19.77;;;;;;;7.80;92.07;102521.25;5033214;28;20029;-73
2021/12/13 05:34:41;;;;;;;28.73;20.08;;;;;;;7.80;91.62;102516.03;5032526;28;20037;-74
2021/12/13 05:37:08;;;;;;;34.25;20.65;;;;;;;7.80;91.92;102514.34;5030467;28;20093;-73
2021/12/13 05:39:36;;;;;;;30.88;22.08;;;;;;;7.80;91.55;102518.66;5016478;28;20053;-73
2021/12/13 05:42:09;;;;;;;27.13;20.58;;;;;;;7.79;91.70;102519.50;5047321;28;20028;-73
2021/12/13 05:44:41;;;;;;;24.13;19.98;;;;;;;7.78;92.18;102522.97;5029066;28;20396;-87
2021/12/13 05:47:21;;;;;;;29.40;20.33;;;;;;;7.79;91.94;102527.34;5034607;28;20029;-84
2021/12/13 05:50:06;;;;;;;26.52;19.20;;;;;;;7.80;91.40;102522.16;5015077;28;20026;-85
2021/12/13 05:52:38;;;;;;;28.63;20.23;;;;;;;7.78;91.58;102525.56;5032591;28;20436;-85
2021/12/13 05:55:12;;;;;;;33.78;19.23;;;;;;;7.77;91.87;102523.78;5034753;28;20389;-85
2021/12/13 06:01:02;;;;;;;27.02;18.63;;;;;;;7.78;91.59;102522.97;5055278;28;20069;-84
2021/12/13 06:06:54;;;;;;;28.25;18.48;;;;;;;7.78;91.35;102536.00;5056033;28;20055;-84
2021/12/13 06:09:48;;;;;;;26.38;17.60;;;;;;;7.77;91.31;102532.53;5029444;28;20036;-84
2021/12/13 06:12:27;;;;;;;27.98;19.00;;;;;;;7.78;91.49;102525.56;5056880;28;20493;-88
2021/12/13 06:18:24;;;;;;;26.35;18.50;;;;;;;7.77;91.40;102534.22;5050698;28;20544;-91
2021/12/13 06:21:22;;;;;;;28.95;20.88;;;;;;;7.74;91.09;102529.84;5033979;28;20033;-87
2021/12/13 06:23:48;;;;;;;24.45;17.88;;;;;;;7.72;91.33;102536.72;5047668;28;20104;-92
2021/12/13 06:26:14;;;;;;;24.08;18.17;;;;;;;7.71;90.87;102532.34;5018998;28;20029;-90
2021/12/13 06:29:18;;;;;;;22.50;17.35;;;;;;;7.70;91.33;102527.97;5024896;28;20033;-91
2021/12/13 06:31:45;;;;;;;24.48;18.48;;;;;;;7.68;91.30;102534.00;5035125;28;20033;-91
2021/12/13 06:34:16;;;;;;;25.38;18.83;;;;;;;7.67;90.87;102538.34;5034428;28;20078;-74
2021/12/13 06:36:45;;;;;;;22.38;17.55;;;;;;;7.67;91.23;102540.94;5029519;28;20033;-74
2021/12/13 06:39:10;;;;;;;30.55;21.15;;;;;;;7.66;91.23;102539.19;5046435;28;20085;-75
2021/12/13 06:41:43;;;;;;;25.70;18.80;;;;;;;7.66;91.05;102546.09;5033169;28;20063;-84
2021/12/13 06:44:15;;;;;;;29.27;19.48;;;;;;;7.65;91.60;102549.56;5032524;28;20021;-88
2021/12/13 06:47:07;;;;;;;29.90;19.17;;;;;;;7.65;91.11;102554.78;5038161;28;20059;-88
2021/12/13 06:49:41;;;;;;;33.85;21.20;;;;;;;7.64;91.81;102551.28;5032823;28;20022;-87
2021/12/13 06:52:13;;;;;;;28.48;20.45;;;;;;;7.63;91.25;102547.78;5030303;28;20063;-89
2021/12/13 06:54:46;;;;;;;30.65;20.67;;;;;;;7.61;91.50;102552.09;5037692;28;20029;-87
2021/12/13 06:57:49;;;;;;;25.17;18.52;;;;;;;7.61;91.54;102551.19;5037600;28;20474;-87
2021/12/13 07:00:21;;;;;;;23.20;18.00;;;;;;;7.58;92.05;102557.19;5036074;28;20544;-84
2021/12/13 07:03:04;;;;;;;31.88;18.10;;;;;;;7.58;91.35;102557.19;5039829;28;20116;-85
2021/12/13 07:05:34;;;;;;;24.75;18.08;;;;;;;7.57;90.90;102565.91;5033322;28;20393;-86
2021/12/13 07:08:05;;;;;;;32.88;18.63;;;;;;;7.57;91.48;102563.28;5035059;28;20139;-84
2021/12/13 07:10:34;;;;;;;24.50;16.45;;;;;;;7.56;91.05;102561.50;5036122;28;20032;-83
2021/12/13 07:13:23;;;;;;;27.17;18.02;;;;;;;7.56;91.50;102564.13;5037727;28;20021;-85
2021/12/13 07:19:48;;;;;;;22.92;16.77;;;;;;;7.57;91.27;102568.50;5054496;28;20032;-87
2021/12/13 07:22:21;;;;;;;22.85;16.33;;;;;;;7.56;91.17;102574.56;5053051;28;20095;-85
2021/12/13 07:24:54;;;;;;;20.05;15.38;;;;;;;7.56;91.66;102584.13;5037481;28;20048;-85
2021/12/13 07:27:57;;;;;;;23.05;16.58;;;;;;;7.57;91.04;102572.81;5037259;28;20032;-85
2021/12/13 07:30:42;;;;;;;20.10;14.88;;;;;;;7.58;91.27;102578.06;5029425;28;20075;-84
2021/12/13 07:33:12;;;;;;;22.40;16.25;;;;;;;7.56;91.56;102582.38;5037390;28;20127;-85
2021/12/13 07:35:43;;;;;;;24.33;16.67;;;;;;;7.56;91.05;102579.78;5021309;28;20059;-84
2021/12/13 07:38:26;;;;;;;22.33;17.30;;;;;;;7.58;90.80;102578.06;5036972;28;20029;-82
2021/12/13 07:41:07;;;;;;;24.52;16.65;;;;;;;7.57;91.44;102589.38;5036868;28;20045;-85
2021/12/13 07:43:38;;;;;;;26.58;15.93;;;;;;;7.57;91.41;102586.75;5045758;28;20063;-84
2021/12/13 07:46:18;;;;;;;19.33;14.95;;;;;;;7.59;91.12;102592.03;5051973;28;20037;-85
2021/12/13 07:48:45;;;;;;;22.58;16.15;;;;;;;7.57;91.40;102594.59;5036902;28;20033;-84
2021/12/13 07:51:25;;;;;;;21.00;15.65;;;;;;;7.58;91.55;102585.91;5036385;28;20031;-83
2021/12/13 07:53:56;;;;;;;24.17;16.33;;;;;;;7.58;91.48;102595.47;5023152;28;20021;-84
2021/12/13 07:56:28;;;;;;;23.75;17.15;;;;;;;7.58;91.35;102593.72;5030849;28;20055;-83
2021/12/13 07:59:37;;;;;;;21.38;15.50;;;;;;;7.61;91.40;102601.69;5036595;28;20060;-83
2021/12/13 08:02:15;;;;;;;20.38;14.27;;;;;;;7.60;91.54;102609.44;5027112;28;20013;-83
2021/12/13 08:04:54;;;;;;;18.40;13.85;;;;;;;7.61;91.61;102612.09;5036505;28;20024;-84
2021/12/13 08:07:30;;;;;;;24.02;14.80;;;;;;;7.63;91.56;102614.75;5042567;28;20039;-84
2021/12/13 08:10:01;;;;;;;18.40;14.50;;;;;;;7.61;91.04;102612.09;5036775;28;20028;-84
2021/12/13 08:12:31;;;;;;;22.83;16.55;;;;;;;7.59;91.36;102603.34;5036373;28;20385;-84
2021/12/13 08:15:47;;;;;;;26.88;16.25;;;;;;;7.65;91.77;102612.19;5036559;28;20025;-84
2021/12/13 08:18:34;;;;;;;24.85;18.65;;;;;;;7.63;91.55;102609.53;5026506;28;20035;-83
2021/12/13 08:21:21;;;;;;;29.88;18.05;;;;;;;7.65;91.17;102613.06;5041286;28;20123;-84
2021/12/13 08:24:09;;;;;;;25.80;16.40;;;;;;;7.67;91.30;102619.22;5036318;28;20396;-84
2021/12/13 08:26:39;;;;;;;22.55;15.80;;;;;;;7.67;91.04;102610.50;5036500;28;20465;-85
2021/12/13 08:29:31;;;;;;;22.08;16.23;;;;;;;7.68;91.47;102610.53;5035885;28;20036;-84
2021/12/13 08:32:05;;;;;;;21.00;15.82;;;;;;;7.66;90.72;102608.72;5030367;28;20021;-83
2021/12/13 08:34:36;;;;;;;22.20;15.98;;;;;;;7.67;91.49;102605.28;5033984;28;20053;-85
2021/12/13 08:37:16;;;;;;;45.17;28.58;;;;;;;7.67;91.53;102606.19;5032937;28;20025;-85
2021/12/13 08:39:42;;;;;;;22.13;15.98;;;;;;;7.66;91.30;102603.50;5028028;28;20060;-86
2021/12/13 08:42:11;;;;;;;28.73;19.40;;;;;;;7.66;90.97;102608.72;5036126;28;20025;-87
2021/12/13 08:44:43;;;;;;;20.55;15.55;;;;;;;7.66;91.03;102606.09;5036493;28;20112;-87
2021/12/13 08:47:14;;;;;;;16.85;14.30;;;;;;;7.65;91.51;102613.06;5036197;28;20090;-85
2021/12/13 08:50:00;;;;;;;19.88;14.85;;;;;;;7.67;91.50;102606.19;5036130;28;20028;-86
2021/12/13 08:52:40;;;;;;;19.13;14.23;;;;;;;7.65;91.00;102612.19;5035761;28;20032;-83
2021/12/13 08:58:20;;;;;;;17.45;13.77;;;;;;;7.63;91.06;102607.81;5012350;28;20044;-85
2021/12/13 09:01:10;;;;;;;21.65;14.32;;;;;;;7.64;91.61;102606.06;4978204;28;20069;-81
2021/12/13 09:03:45;;;;;;;18.73;13.18;;;;;;;7.66;90.89;102611.34;4984987;28;20069;-87
2021/12/13 09:06:17;;;;;;;17.80;13.13;;;;;;;7.66;91.09;102608.72;4993643;28;20053;-86
2021/12/13 09:12:08;;;;;;;19.90;13.43;;;;;;;7.65;90.92;102617.41;5005504;28;20125;-86
2021/12/13 09:14:40;;;;;;;17.55;12.98;;;;;;;7.66;90.90;102607.00;4994933;28;20034;-82
2021/12/13 09:17:23;;;;;;;17.45;12.23;;;;;;;7.67;90.43;102615.72;4995059;28;20018;-84
2021/12/13 09:23:15;;;;;;;38.60;24.60;;;;;;;7.68;90.90;102615.75;4992146;28;20505;-85
2021/12/13 09:26:06;;;;;;;18.60;11.20;;;;;;;7.69;90.63;102622.75;4993218;28;20613;-84
2021/12/13 09:28:42;;;;;;;15.30;10.88;;;;;;;7.71;90.13;102628.88;4999381;28;20079;-84
2021/12/13 09:31:22;;;;;;;13.43;10.85;;;;;;;7.73;90.87;102637.66;5034983;28;20481;-84
2021/12/13 09:33:54;;;;;;;15.40;12.30;;;;;;;7.73;90.38;102641.97;5036957;28;20071;-86
2021/12/13 09:36:24;;;;;;;14.57;11.60;;;;;;;7.74;90.22;102639.44;5039955;28;20032;-85
2021/12/13 09:39:10;;;;;;;12.90;11.05;;;;;;;7.76;90.20;102647.31;5035100;28;20032;-84
2021/12/13 09:41:45;;;;;;;15.50;10.93;;;;;;;7.76;90.34;102657.75;5035021;28;20037;-84
2021/12/13 09:44:11;;;;;;;11.93;9.10;;;;;;;7.74;90.00;102665.53;5039941;28;20032;-88
2021/12/13 09:46:45;;;;;;;13.18;10.40;;;;;;;7.75;89.88;102667.28;5055472;28;20034;-85
2021/12/13 09:49:49;;;;;;;14.85;10.30;;;;;;;7.76;90.05;102669.06;5055171;28;20032;-84
2021/12/13 09:52:42;;;;;;;14.15;8.85;;;;;;;7.78;90.40;102672.59;5028846;28;20036;-85
2021/12/13 10:01:45;;;;;;;12.25;9.63;;;;;;;7.81;89.61;102692.69;5032813;28;20394;-85
2021/12/13 10:04:50;;;;;;;12.35;9.35;;;;;;;7.86;90.29;102691.09;5014939;28;20470;-84
2021/12/13 10:07:21;;;;;;;11.05;9.05;;;;;;;7.85;89.78;102688.44;5040421;28;20047;-84
2021/12/13 10:13:14;;;;;;;9.38;7.65;;;;;;;7.88;89.92;102681.56;5052608;28;20036;-83
2021/12/13 10:15:53;;;;;;;11.73;9.20;;;;;;;7.89;89.78;102688.56;5034055;28;20439;-81
2021/12/13 10:18:24;;;;;;;11.05;8.50;;;;;;;7.89;89.81;102680.75;5029520;28;20094;-81
2021/12/13 10:21:23;;;;;;;10.20;8.82;;;;;;;7.92;89.32;102678.22;5037287;28;20020;-81
2021/12/13 10:24:03;;;;;;;8.65;7.32;;;;;;;7.92;89.45;102674.75;5022288;28;20051;-83
2021/12/13 10:26:32;;;;;;;10.80;8.07;;;;;;;7.90;89.65;102672.09;5038216;28;20025;-81
2021/12/13 10:29:03;;;;;;;10.07;7.93;;;;;;;7.91;89.47;102679.06;5037117;28;20052;-82
2021/12/13 10:31:32;;;;;;;8.93;7.80;;;;;;;7.91;89.43;102673.84;5038079;28;20044;-80
2021/12/13 10:33:59;;;;;;;9.60;7.38;;;;;;;7.91;88.78;102663.38;5037624;28;20473;-80
2021/12/13 10:36:28;;;;;;;13.35;8.48;;;;;;;7.90;88.88;102666.88;5045424;28;20397;-82
2021/12/13 10:39:00;;;;;;;9.02;7.03;;;;;;;7.89;88.98;102665.09;5037640;28;20025;-81
2021/12/13 10:41:36;;;;;;;10.00;6.80;;;;;;;7.91;88.78;102663.38;5014192;28;20072;-81
2021/12/13 10:44:06;;;;;;;8.20;7.25;;;;;;;7.92;88.98;102669.50;5036730;28;20029;-81
2021/12/13 10:46:38;;;;;;;13.77;7.07;;;;;;;7.94;88.88;102666.13;5034301;28;20152;-80
2021/12/13 10:49:18;;;;;;;9.65;7.00;;;;;;;7.94;89.10;102668.72;5037077;28;20021;-81
2021/12/13 10:51:54;;;;;;;13.00;6.68;;;;;;;7.94;89.12;102666.13;5036520;28;20039;-80
2021/12/13 10:54:23;;;;;;;7.85;6.80;;;;;;;7.95;89.09;102662.63;5045722;28;20594;-81
2021/12/13 10:56:54;;;;;;;8.82;7.25;;;;;;;7.97;88.81;102668.81;5037277;28;20032;-80
2021/12/13 10:59:23;;;;;;;9.55;7.97;;;;;;;7.96;88.47;102666.16;5038493;28;20547;-81
2021/12/13 11:01:53;;;;;;;8.48;6.85;;;;;;;7.96;88.82;102656.59;5033719;28;20037;-81
2021/12/13 11:04:23;;;;;;;9.18;6.82;;;;;;;7.97;87.86;102657.47;5034447;28;20030;-80
2021/12/13 11:06:49;;;;;;;10.57;7.65;;;;;;;7.97;88.15;102653.16;5023040;28;20021;-80
2021/12/13 11:09:19;;;;;;;7.15;6.45;;;;;;;7.97;88.04;102653.16;5036550;28;20082;-80
2021/12/13 11:12:03;;;;;;;8.40;6.47;;;;;;;7.99;88.12;102650.56;5035970;28;20115;-79
2021/12/13 11:14:31;;;;;;;8.00;6.30;;;;;;;8.00;88.08;102646.22;5039637;28;20133;-80
2021/12/13 11:17:07;;;;;;;7.80;7.00;;;;;;;8.02;87.90;102647.16;5016708;28;20051;-79
2021/12/13 11:19:35;;;;;;;8.75;6.75;;;;;;;8.02;88.06;102650.66;5036452;28;20389;-80
2021/12/13 11:22:09;;;;;;;8.55;6.43;;;;;;;8.02;87.70;102649.78;5032461;28;20086;-79
2021/12/13 11:24:41;;;;;;;7.90;7.10;;;;;;;8.03;88.39;102648.91;5047741;28;20029;-81
2021/12/13 11:27:14;;;;;;;7.97;5.95;;;;;;;8.03;87.93;102646.31;5036040;28;20046;-81
2021/12/13 11:29:42;;;;;;;10.93;5.88;;;;;;;8.06;88.09;102649.00;5031747;28;20024;-81
2021/12/13 11:32:37;;;;;;;6.72;5.85;;;;;;;8.09;87.72;102649.09;5025058;28;20022;-81
2021/12/13 11:35:09;;;;;;;6.75;6.05;;;;;;;8.08;87.45;102653.44;5026136;28;20058;-81
2021/12/13 11:37:57;;;;;;;7.05;6.35;;;;;;;8.09;87.79;102652.59;5043800;28;20039;-80
2021/12/13 11:40:34;;;;;;;6.93;6.05;;;;;;;8.11;87.75;102655.25;5035737;28;20052;-81
2021/12/13 11:43:28;;;;;;;8.80;5.45;;;;;;;8.11;87.69;102650.03;5042789;28;20043;-81
2021/12/13 11:46:05;;;;;;;6.53;5.85;;;;;;;8.11;87.41;102644.81;5035384;28;20024;-81
2021/12/13 11:49:21;;;;;;;6.85;5.70;;;;;;;8.12;87.19;102646.56;5035070;28;20031;-81
2021/12/13 11:52:14;;;;;;;7.93;4.85;;;;;;;8.13;87.29;102643.09;4990937;28;20051;-81
2021/12/13 11:54:40;;;;;;;5.80;5.10;;;;;;;8.11;86.37;102642.19;5034754;28;20060;-80
2021/12/13 11:57:42;;;;;;;6.40;5.25;;;;;;;8.13;86.84;102640.50;5035791;28;20060;-81
2021/12/13 12:00:39;;;;;;;9.85;5.70;;;;;;;8.12;86.64;102636.13;5034916;28;20098;-80
2021/12/13 12:03:20;;;;;;;6.93;4.88;;;;;;;8.11;86.31;102632.63;4945325;28;20047;-80
2021/12/13 12:06:33;;;;;;;7.13;5.03;;;;;;;8.14;86.27;102635.31;5034965;28;20029;-80
2021/12/13 12:09:16;;;;;;;7.07;5.13;;;;;;;8.13;86.70;102632.66;4965603;28;20141;-81
2021/12/13 12:12:19;;;;;;;7.35;4.55;;;;;;;8.14;86.60;102639.66;4961647;28;20030;-81
2021/12/13 12:14:48;;;;;;;6.45;5.38;;;;;;;8.12;86.81;102625.69;4999785;28;20568;-80
2021/12/13 12:17:14;;;;;;;5.55;4.72;;;;;;;8.13;85.71;102627.44;5034974;28;20021;-79
2021/12/13 12:19:41;;;;;;;6.88;5.25;;;;;;;8.12;86.67;102630.91;5033752;28;20120;-80
2021/12/13 12:22:16;;;;;;;6.78;4.90;;;;;;;8.13;86.69;102627.44;5034748;28;20488;-80
2021/12/13 12:24:46;;;;;;;5.00;4.15;;;;;;;8.12;85.95;102633.53;5050522;28;20056;-80
2021/12/13 12:27:14;;;;;;;7.13;5.18;;;;;;;8.13;86.18;102637.88;5033957;28;20028;-81
2021/12/13 12:29:49;;;;;;;5.72;5.10;;;;;;;8.12;86.27;102630.91;5034029;28;20060;-81
2021/12/13 12:32:20;;;;;;;5.18;4.40;;;;;;;8.13;85.85;102632.66;5033340;28;20024;-80
2021/12/13 12:34:54;;;;;;;6.78;5.32;;;;;;;8.11;86.61;102635.22;5029882;28;20025;-80
2021/12/13 12:38:00;;;;;;;6.82;4.75;;;;;;;8.14;85.98;102639.66;5034302;28;20029;-81
2021/12/13 12:40:36;;;;;;;5.35;4.05;;;;;;;8.13;85.56;102635.25;5001258;28;20056;-80
2021/12/13 12:43:12;;;;;;;5.15;4.55;;;;;;;8.10;85.57;102630.88;5050467;28;20513;-80
2021/12/13 12:45:53;;;;;;;5.03;4.53;;;;;;;8.10;85.55;102632.56;5033011;28;20499;-80
2021/12/13 12:48:22;;;;;;;4.88;4.38;;;;;;;8.09;85.74;102638.66;5033206;28;20017;-80